sensor_id;sensor_type;location;lat;lon;timestamp;pressure;altitude;pressure_sealevel;temperature;humidity
21706;BME280;11014;53.076;18.208;2024-03-02T00:01:07;100871.91;;;13.04;66.70
21706;BME280;11014;53.076;18.208;2024-03-02T00:03:46;100867.81;;;13.02;66.93
21706;BME280;11014;53.076;18.208;2024-03-02T00:06:19;100866.25;;;13.06;67.19
21706;BME280;11014;53.076;18.208;2024-03-02T00:08:48;100859.47;;;13.03;67.20
21706;BME280;11014;53.076;18.208;2024-03-02T00:11:17;100859.84;;;13.07;67.03
21706;BME280;11014;53.076;18.208;2024-03-02T00:13:46;100859.84;;;13.07;67.07
21706;BME280;11014;53.076;18.208;2024-03-02T00:16:15;100860.75;;;13.01;67.22
21706;BME280;11014;53.076;18.208;2024-03-02T00:18:46;100858.16;;;13.06;67.18
21706;BME280;11014;53.076;18.208;2024-03-02T00:21:17;100851.75;;;13.07;67.18
21706;BME280;11014;53.076;18.208;2024-03-02T00:23:49;100858.66;;;13.03;67.38
21706;BME280;11014;53.076;18.208;2024-03-02T00:26:20;100857.84;;;13.02;67.40
21706;BME280;11014;53.076;18.208;2024-03-02T00:28:49;100861.84;;;13.00;67.42
21706;BME280;11014;53.076;18.208;2024-03-02T00:31:19;100852.94;;;12.99;67.36
21706;BME280;11014;53.076;18.208;2024-03-02T00:33:48;100853.97;;;12.98;67.73
21706;BME280;11014;53.076;18.208;2024-03-02T00:36:27;100850.31;;;13.04;67.69
21706;BME280;11014;53.076;18.208;2024-03-02T00:38:55;100854.53;;;13.00;67.39
21706;BME280;11014;53.076;18.208;2024-03-02T00:41:30;100859.47;;;13.03;67.46
21706;BME280;11014;53.076;18.208;2024-03-02T00:44:03;100859.94;;;13.00;67.43
21706;BME280;11014;53.076;18.208;2024-03-02T00:46:38;100846.72;;;12.99;67.51
21706;BME280;11014;53.076;18.208;2024-03-02T00:49:20;100862.16;;;13.03;67.71
21706;BME280;11014;53.076;18.208;2024-03-02T00:51:51;100860.91;;;12.94;67.85
21706;BME280;11014;53.076;18.208;2024-03-02T00:54:25;100857.25;;;13.00;67.90
21706;BME280;11014;53.076;18.208;2024-03-02T00:56:55;100853.41;;;12.96;67.75
21706;BME280;11014;53.076;18.208;2024-03-02T00:59:26;100855.44;;;12.89;67.98
21706;BME280;11014;53.076;18.208;2024-03-02T01:01:55;100843.22;;;12.87;68.16
21706;BME280;11014;53.076;18.208;2024-03-02T01:04:24;100838.47;;;12.77;68.52
21706;BME280;11014;53.076;18.208;2024-03-02T01:06:52;100843.94;;;12.82;68.12
21706;BME280;11014;53.076;18.208;2024-03-02T01:09:20;100832.25;;;12.77;68.53
21706;BME280;11014;53.076;18.208;2024-03-02T01:11:49;100836.34;;;12.79;68.16
21706;BME280;11014;53.076;18.208;2024-03-02T01:14:18;100830.38;;;12.77;68.50
21706;BME280;11014;53.076;18.208;2024-03-02T01:16:46;100829.34;;;12.78;68.27
21706;BME280;11014;53.076;18.208;2024-03-02T01:19:15;100823.34;;;12.76;68.37
21706;BME280;11014;53.076;18.208;2024-03-02T01:21:44;100816.91;;;12.77;68.28
21706;BME280;11014;53.076;18.208;2024-03-02T01:24:12;100830.94;;;12.79;68.46
21706;BME280;11014;53.076;18.208;2024-03-02T01:26:42;100830.38;;;12.77;68.47
21706;BME280;11014;53.076;18.208;2024-03-02T01:29:10;100822.28;;;12.77;68.49
21706;BME280;11014;53.076;18.208;2024-03-02T01:31:39;100808.56;;;12.79;68.40
21706;BME280;11014;53.076;18.208;2024-03-02T01:34:10;100799.09;;;12.76;68.32
21706;BME280;11014;53.076;18.208;2024-03-02T01:36:39;100789.28;;;12.70;68.37
21706;BME280;11014;53.076;18.208;2024-03-02T01:39:08;100791.38;;;12.68;68.71
21706;BME280;11014;53.076;18.208;2024-03-02T01:41:37;100794.81;;;12.64;68.75
21706;BME280;11014;53.076;18.208;2024-03-02T01:44:06;100799.94;;;12.65;68.31
21706;BME280;11014;53.076;18.208;2024-03-02T01:46:35;100796.69;;;12.63;68.30
21706;BME280;11014;53.076;18.208;2024-03-02T01:49:04;100792.84;;;12.59;68.54
21706;BME280;11014;53.076;18.208;2024-03-02T01:51:33;100798.34;;;12.53;68.35
21706;BME280;11014;53.076;18.208;2024-03-02T01:54:01;100802.44;;;12.55;68.38
21706;BME280;11014;53.076;18.208;2024-03-02T01:56:30;100801.41;;;12.56;68.39
21706;BME280;11014;53.076;18.208;2024-03-02T01:58:58;100796.47;;;12.53;68.47
21706;BME280;11014;53.076;18.208;2024-03-02T02:01:27;100804.22;;;12.49;68.21
21706;BME280;11014;53.076;18.208;2024-03-02T02:03:56;100805.16;;;12.43;68.20
21706;BME280;11014;53.076;18.208;2024-03-02T02:06:25;100803.66;;;12.36;68.49
21706;BME280;11014;53.076;18.208;2024-03-02T02:08:54;100799.22;;;12.30;68.35
21706;BME280;11014;53.076;18.208;2024-03-02T02:11:24;100788.72;;;12.17;68.44
21706;BME280;11014;53.076;18.208;2024-03-02T02:13:53;100792.22;;;12.06;68.60
21706;BME280;11014;53.076;18.208;2024-03-02T02:16:24;100807.13;;;11.97;68.70
21706;BME280;11014;53.076;18.208;2024-03-02T02:18:52;100802.06;;;11.88;68.78
21706;BME280;11014;53.076;18.208;2024-03-02T02:21:24;100802.56;;;11.85;68.52
21706;BME280;11014;53.076;18.208;2024-03-02T02:23:52;100803.50;;;11.79;68.57
21706;BME280;11014;53.076;18.208;2024-03-02T02:26:21;100809.22;;;11.71;68.86
21706;BME280;11014;53.076;18.208;2024-03-02T02:28:50;100805.31;;;11.67;68.80
21706;BME280;11014;53.076;18.208;2024-03-02T02:31:18;100802.28;;;11.64;69.11
21706;BME280;11014;53.076;18.208;2024-03-02T02:33:47;100802.59;;;11.56;69.35
21706;BME280;11014;53.076;18.208;2024-03-02T02:36:16;100806.47;;;11.48;69.14
21706;BME280;11014;53.076;18.208;2024-03-02T02:38:46;100802.00;;;11.42;69.33
21706;BME280;11014;53.076;18.208;2024-03-02T02:41:16;100799.44;;;11.36;69.02
21706;BME280;11014;53.076;18.208;2024-03-02T02:43:45;100791.47;;;11.29;69.31
21706;BME280;11014;53.076;18.208;2024-03-02T02:46:13;100799.84;;;11.21;69.51
21706;BME280;11014;53.076;18.208;2024-03-02T02:48:41;100795.41;;;11.15;69.19
21706;BME280;11014;53.076;18.208;2024-03-02T02:51:10;100794.69;;;11.08;69.61
21706;BME280;11014;53.076;18.208;2024-03-02T02:53:39;100795.59;;;11.02;69.55
21706;BME280;11014;53.076;18.208;2024-03-02T02:56:10;100791.50;;;10.99;69.21
21706;BME280;11014;53.076;18.208;2024-03-02T02:58:40;100794.75;;;10.90;69.77
21706;BME280;11014;53.076;18.208;2024-03-02T03:01:09;100790.88;;;10.86;69.76
21706;BME280;11014;53.076;18.208;2024-03-02T03:03:38;100801.63;;;10.86;70.31
21706;BME280;11014;53.076;18.208;2024-03-02T03:06:06;100798.34;;;10.84;70.61
21706;BME280;11014;53.076;18.208;2024-03-02T03:08:35;100799.38;;;10.83;70.46
21706;BME280;11014;53.076;18.208;2024-03-02T03:11:04;100798.78;;;10.81;71.00
21706;BME280;11014;53.076;18.208;2024-03-02T03:13:33;100809.09;;;10.84;70.79
21706;BME280;11014;53.076;18.208;2024-03-02T03:16:03;100805.94;;;10.87;71.25
21706;BME280;11014;53.076;18.208;2024-03-02T03:18:31;100807.38;;;10.89;71.16
21706;BME280;11014;53.076;18.208;2024-03-02T03:21:00;100806.09;;;10.92;71.31
21706;BME280;11014;53.076;18.208;2024-03-02T03:23:28;100814.28;;;10.97;71.26
21706;BME280;11014;53.076;18.208;2024-03-02T03:25:57;100804.72;;;11.01;71.27
21706;BME280;11014;53.076;18.208;2024-03-02T03:28:25;100800.50;;;11.05;71.31
21706;BME280;11014;53.076;18.208;2024-03-02T03:30:54;100792.25;;;11.06;71.27
21706;BME280;11014;53.076;18.208;2024-03-02T03:33:23;100795.72;;;11.07;71.66
21706;BME280;11014;53.076;18.208;2024-03-02T03:35:52;100795.97;;;11.05;71.59
21706;BME280;11014;53.076;18.208;2024-03-02T03:38:21;100786.88;;;11.06;71.53
21706;BME280;11014;53.076;18.208;2024-03-02T03:40:50;100780.03;;;11.04;71.69
21706;BME280;11014;53.076;18.208;2024-03-02T03:43:18;100786.13;;;10.99;71.89
21706;BME280;11014;53.076;18.208;2024-03-02T03:45:47;100786.38;;;10.98;72.02
21706;BME280;11014;53.076;18.208;2024-03-02T03:48:15;100782.59;;;10.99;71.96
21706;BME280;11014;53.076;18.208;2024-03-02T03:50:44;100786.50;;;11.03;72.00
21706;BME280;11014;53.076;18.208;2024-03-02T03:53:12;100771.19;;;11.03;71.92
21706;BME280;11014;53.076;18.208;2024-03-02T03:55:42;100774.53;;;10.99;72.00
21706;BME280;11014;53.076;18.208;2024-03-02T03:58:11;100772.09;;;10.97;72.01
21706;BME280;11014;53.076;18.208;2024-03-02T04:00:40;100772.09;;;10.97;72.09
21706;BME280;11014;53.076;18.208;2024-03-02T04:03:08;100769.16;;;10.99;72.31
21706;BME280;11014;53.076;18.208;2024-03-02T04:05:37;100773.28;;;11.01;72.18
21706;BME280;11014;53.076;18.208;2024-03-02T04:08:06;100777.38;;;11.04;72.09
21706;BME280;11014;53.076;18.208;2024-03-02T04:10:35;100763.34;;;11.02;72.37
21706;BME280;11014;53.076;18.208;2024-03-02T04:13:03;100763.34;;;11.02;72.53
21706;BME280;11014;53.076;18.208;2024-03-02T04:15:32;100768.25;;;11.05;72.41
21706;BME280;11014;53.076;18.208;2024-03-02T04:18:00;100772.34;;;11.07;72.43
21706;BME280;11014;53.076;18.208;2024-03-02T04:20:30;100767.81;;;11.08;72.17
21706;BME280;11014;53.076;18.208;2024-03-02T04:22:58;100769.91;;;11.06;72.44
21706;BME280;11014;53.076;18.208;2024-03-02T04:25:27;100778.56;;;11.08;72.43
21706;BME280;11014;53.076;18.208;2024-03-02T04:27:55;100771.06;;;11.10;72.45
21706;BME280;11014;53.076;18.208;2024-03-02T04:30:24;100750.63;;;11.09;72.16
21706;BME280;11014;53.076;18.208;2024-03-02T04:32:53;100743.25;;;11.04;72.57
21706;BME280;11014;53.076;18.208;2024-03-02T04:35:22;100763.47;;;11.07;72.60
21706;BME280;11014;53.076;18.208;2024-03-02T04:37:51;100763.47;;;11.07;72.58
21706;BME280;11014;53.076;18.208;2024-03-02T04:40:23;100768.84;;;11.07;72.53
21706;BME280;11014;53.076;18.208;2024-03-02T04:42:51;100779.00;;;11.05;72.40
21706;BME280;11014;53.076;18.208;2024-03-02T04:45:20;100778.09;;;11.11;72.41
21706;BME280;11014;53.076;18.208;2024-03-02T04:47:48;100764.31;;;11.19;72.35
21706;BME280;11014;53.076;18.208;2024-03-02T04:50:17;100772.97;;;11.21;72.08
21706;BME280;11014;53.076;18.208;2024-03-02T04:52:46;100774.25;;;11.18;72.36
21706;BME280;11014;53.076;18.208;2024-03-02T04:55:14;100768.66;;;11.20;72.13
21706;BME280;11014;53.076;18.208;2024-03-02T04:58:01;100776.25;;;11.23;71.91
21706;BME280;11014;53.076;18.208;2024-03-02T05:00:30;100777.31;;;11.22;72.18
21706;BME280;11014;53.076;18.208;2024-03-02T05:02:59;100772.97;;;11.21;72.38
21706;BME280;11014;53.076;18.208;2024-03-02T05:05:28;100782.91;;;11.20;72.34
21706;BME280;11014;53.076;18.208;2024-03-02T05:07:56;100783.72;;;11.21;72.48
21706;BME280;11014;53.076;18.208;2024-03-02T05:10:25;100796.13;;;11.22;72.25
21706;BME280;11014;53.076;18.208;2024-03-02T05:12:54;100794.03;;;11.24;72.10
21706;BME280;11014;53.076;18.208;2024-03-02T05:15:28;100803.88;;;11.30;72.36
21706;BME280;11014;53.076;18.208;2024-03-02T05:17:56;100799.66;;;11.34;71.94
21706;BME280;11014;53.076;18.208;2024-03-02T05:20:26;100795.22;;;11.40;71.82
21706;BME280;11014;53.076;18.208;2024-03-02T05:22:54;100797.13;;;11.39;71.97
21706;BME280;11014;53.076;18.208;2024-03-02T05:25:23;100794.88;;;11.36;71.87
21706;BME280;11014;53.076;18.208;2024-03-02T05:27:52;100806.31;;;11.31;72.01
21706;BME280;11014;53.076;18.208;2024-03-02T05:30:20;100802.81;;;11.31;72.17
21706;BME280;11014;53.076;18.208;2024-03-02T05:32:49;100803.03;;;11.29;72.21
21706;BME280;11014;53.076;18.208;2024-03-02T05:35:17;100799.66;;;11.34;71.92
21706;BME280;11014;53.076;18.208;2024-03-02T05:37:46;100809.50;;;11.40;72.11
21706;BME280;11014;53.076;18.208;2024-03-02T05:40:15;100813.38;;;11.44;72.00
21706;BME280;11014;53.076;18.208;2024-03-02T05:42:43;100827.66;;;11.45;71.76
21706;BME280;11014;53.076;18.208;2024-03-02T05:45:12;100821.66;;;11.43;71.95
21706;BME280;11014;53.076;18.208;2024-03-02T05:47:40;100828.91;;;11.42;71.82
21706;BME280;11014;53.076;18.208;2024-03-02T05:50:09;100832.19;;;11.44;71.97
21706;BME280;11014;53.076;18.208;2024-03-02T05:52:37;100831.13;;;11.45;71.91
21706;BME280;11014;53.076;18.208;2024-03-02T05:55:07;100835.00;;;11.49;71.60
21706;BME280;11014;53.076;18.208;2024-03-02T05:57:35;100823.66;;;11.47;71.53
21706;BME280;11014;53.076;18.208;2024-03-02T06:00:13;100837.13;;;11.47;71.63
21706;BME280;11014;53.076;18.208;2024-03-02T06:02:45;100831.75;;;11.47;71.86
21706;BME280;11014;53.076;18.208;2024-03-02T06:05:14;100828.44;;;11.45;71.75
21706;BME280;11014;53.076;18.208;2024-03-02T06:07:43;100831.13;;;11.45;71.80
21706;BME280;11014;53.076;18.208;2024-03-02T06:10:12;100841.31;;;11.43;72.12
21706;BME280;11014;53.076;18.208;2024-03-02T06:12:41;100843.28;;;11.48;71.85
21706;BME280;11014;53.076;18.208;2024-03-02T06:15:10;100847.88;;;11.47;71.75
21706;BME280;11014;53.076;18.208;2024-03-02T06:17:39;100844.56;;;11.45;72.06
21706;BME280;11014;53.076;18.208;2024-03-02T06:20:08;100839.19;;;11.45;71.90
21706;BME280;11014;53.076;18.208;2024-03-02T06:22:37;100839.56;;;11.49;72.05
21706;BME280;11014;53.076;18.208;2024-03-02T06:25:06;100848.69;;;11.48;72.18
21706;BME280;11014;53.076;18.208;2024-03-02T06:27:35;100835.00;;;11.49;71.96
21706;BME280;11014;53.076;18.208;2024-03-02T06:30:05;100832.31;;;11.49;72.19
21706;BME280;11014;53.076;18.208;2024-03-02T06:32:38;100841.69;;;11.47;72.24
21706;BME280;11014;53.076;18.208;2024-03-02T06:35:07;100846.22;;;11.46;72.24
21706;BME280;11014;53.076;18.208;2024-03-02T06:37:38;100848.69;;;11.48;72.40
21706;BME280;11014;53.076;18.208;2024-03-02T06:40:10;100850.09;;;11.50;72.13
21706;BME280;11014;53.076;18.208;2024-03-02T06:42:38;100843.66;;;11.51;72.18
21706;BME280;11014;53.076;18.208;2024-03-02T06:45:07;100840.97;;;11.51;72.32
21706;BME280;11014;53.076;18.208;2024-03-02T06:47:36;100829.16;;;11.52;72.41
21706;BME280;11014;53.076;18.208;2024-03-02T06:50:05;100822.88;;;11.58;72.33
21706;BME280;11014;53.076;18.208;2024-03-02T06:52:35;100823.66;;;11.59;72.07
21706;BME280;11014;53.076;18.208;2024-03-02T06:55:05;100823.19;;;11.62;72.00
21706;BME280;11014;53.076;18.208;2024-03-02T06:57:33;100832.09;;;11.62;72.03
21706;BME280;11014;53.076;18.208;2024-03-02T07:00:02;100832.56;;;11.59;72.15
21706;BME280;11014;53.076;18.208;2024-03-02T07:02:33;100842.88;;;11.62;72.01
21706;BME280;11014;53.076;18.208;2024-03-02T07:05:03;100840.16;;;11.62;71.73
21706;BME280;11014;53.076;18.208;2024-03-02T07:07:32;100837.47;;;11.62;71.89
21706;BME280;11014;53.076;18.208;2024-03-02T07:10:01;100839.97;;;11.64;71.95
21706;BME280;11014;53.076;18.208;2024-03-02T07:12:29;100850.47;;;11.65;72.21
21706;BME280;11014;53.076;18.208;2024-03-02T07:14:58;100838.06;;;11.64;71.91
21706;BME280;11014;53.076;18.208;2024-03-02T07:17:33;100830.13;;;11.69;72.07
21706;BME280;11014;53.076;18.208;2024-03-02T07:20:02;100837.19;;;11.70;72.12
21706;BME280;11014;53.076;18.208;2024-03-02T07:22:32;100851.34;;;11.77;71.88
21706;BME280;11014;53.076;18.208;2024-03-02T07:25:03;100865.97;;;11.81;71.72
21706;BME280;11014;53.076;18.208;2024-03-02T07:27:32;100873.69;;;11.89;71.81
21706;BME280;11014;53.076;18.208;2024-03-02T07:30:03;100872.31;;;11.99;71.73
21706;BME280;11014;53.076;18.208;2024-03-02T07:32:31;100870.88;;;12.08;71.49
21706;BME280;11014;53.076;18.208;2024-03-02T07:35:00;100862.34;;;12.11;71.56
21706;BME280;11014;53.076;18.208;2024-03-02T07:37:29;100862.00;;;12.19;71.33
21706;BME280;11014;53.076;18.208;2024-03-02T07:39:58;100858.63;;;12.23;71.29
21706;BME280;11014;53.076;18.208;2024-03-02T07:42:27;100866.56;;;12.30;71.48
21706;BME280;11014;53.076;18.208;2024-03-02T07:44:55;100875.22;;;12.43;71.44
21706;BME280;11014;53.076;18.208;2024-03-02T07:47:24;100862.19;;;12.52;70.92
21706;BME280;11014;53.076;18.208;2024-03-02T07:49:53;100867.81;;;12.62;71.14
21706;BME280;11014;53.076;18.208;2024-03-02T07:52:21;100870.47;;;12.74;71.13
21706;BME280;11014;53.076;18.208;2024-03-02T07:54:50;100861.06;;;12.88;70.61
21706;BME280;11014;53.076;18.208;2024-03-02T07:57:19;100870.25;;;13.03;70.79
21706;BME280;11014;53.076;18.208;2024-03-02T07:59:47;100870.97;;;13.11;70.27
21706;BME280;11014;53.076;18.208;2024-03-02T08:02:17;100881.38;;;13.19;70.07
21706;BME280;11014;53.076;18.208;2024-03-02T08:04:46;100875.59;;;13.27;69.94
21706;BME280;11014;53.076;18.208;2024-03-02T08:07:14;100890.34;;;13.36;69.34
21706;BME280;11014;53.076;18.208;2024-03-02T08:09:43;100894.19;;;13.40;68.98
21706;BME280;11014;53.076;18.208;2024-03-02T08:12:11;100899.56;;;13.40;68.78
21706;BME280;11014;53.076;18.208;2024-03-02T08:14:41;100892.78;;;13.37;68.49
21706;BME280;11014;53.076;18.208;2024-03-02T08:17:21;100896.03;;;13.39;68.55
21706;BME280;11014;53.076;18.208;2024-03-02T08:19:51;100886.06;;;13.40;68.33
21706;BME280;11014;53.076;18.208;2024-03-02T08:22:22;100886.25;;;13.50;68.44
21706;BME280;11014;53.076;18.208;2024-03-02T08:24:54;100884.66;;;13.65;68.40
21706;BME280;11014;53.076;18.208;2024-03-02T08:27:26;100881.84;;;13.77;67.78
21706;BME280;11014;53.076;18.208;2024-03-02T08:29:56;100879.34;;;13.87;67.95
21706;BME280;11014;53.076;18.208;2024-03-02T08:32:25;100874.66;;;13.99;67.45
21706;BME280;11014;53.076;18.208;2024-03-02T08:34:53;100874.84;;;14.09;67.03
21706;BME280;11014;53.076;18.208;2024-03-02T08:37:23;100887.94;;;14.17;66.80
21706;BME280;11014;53.076;18.208;2024-03-02T08:39:52;100885.78;;;14.19;66.42
21706;BME280;11014;53.076;18.208;2024-03-02T08:42:21;100884.47;;;14.22;65.81
21706;BME280;11014;53.076;18.208;2024-03-02T08:44:50;100891.31;;;14.30;65.61
21706;BME280;11014;53.076;18.208;2024-03-02T08:47:19;100892.75;;;14.32;65.65
21706;BME280;11014;53.076;18.208;2024-03-02T08:49:49;100896.84;;;14.35;65.31
21706;BME280;11014;53.076;18.208;2024-03-02T08:52:17;100903.78;;;14.31;64.82
21706;BME280;11014;53.076;18.208;2024-03-02T08:54:46;100909.34;;;14.24;64.70
21706;BME280;11014;53.076;18.208;2024-03-02T08:57:15;100902.56;;;14.21;64.85
21706;BME280;11014;53.076;18.208;2024-03-02T08:59:43;100898.13;;;14.15;65.03
21706;BME280;11014;53.076;18.208;2024-03-02T09:02:12;100900.53;;;14.12;65.13
21706;BME280;11014;53.076;18.208;2024-03-02T09:04:41;100902.97;;;14.13;65.18
21706;BME280;11014;53.076;18.208;2024-03-02T09:07:12;100901.50;;;14.22;65.56
21706;BME280;11014;53.076;18.208;2024-03-02T09:09:41;100902.50;;;14.33;65.37
21706;BME280;11014;53.076;18.208;2024-03-02T09:12:09;100905.59;;;14.42;64.89
21706;BME280;11014;53.076;18.208;2024-03-02T09:14:40;100906.72;;;14.46;64.43
21706;BME280;11014;53.076;18.208;2024-03-02T09:17:09;100911.84;;;14.42;64.20
21706;BME280;11014;53.076;18.208;2024-03-02T09:19:40;100908.88;;;14.44;64.47
21706;BME280;11014;53.076;18.208;2024-03-02T09:22:09;100912.78;;;14.53;64.17
21706;BME280;11014;53.076;18.208;2024-03-02T09:24:38;100899.34;;;14.58;64.36
21706;BME280;11014;53.076;18.208;2024-03-02T09:27:07;100896.69;;;14.63;64.14
21706;BME280;11014;53.076;18.208;2024-03-02T09:29:36;100893.00;;;14.69;64.10
21706;BME280;11014;53.076;18.208;2024-03-02T09:32:05;100896.31;;;14.76;64.11
21706;BME280;11014;53.076;18.208;2024-03-02T09:34:34;100902.38;;;14.83;63.61
21706;BME280;11014;53.076;18.208;2024-03-02T09:37:03;100897.91;;;14.94;63.73
21706;BME280;11014;53.076;18.208;2024-03-02T09:39:32;100906.91;;;14.99;63.37
21706;BME280;11014;53.076;18.208;2024-03-02T09:42:01;100907.00;;;15.09;62.89
21706;BME280;11014;53.076;18.208;2024-03-02T09:44:30;100905.50;;;15.18;62.62
21706;BME280;11014;53.076;18.208;2024-03-02T09:46:59;100895.06;;;15.27;62.71
21706;BME280;11014;53.076;18.208;2024-03-02T09:49:28;100899.22;;;15.39;62.36
21706;BME280;11014;53.076;18.208;2024-03-02T09:51:56;100897.16;;;15.47;62.34
21706;BME280;11014;53.076;18.208;2024-03-02T09:54:25;100909.16;;;15.56;62.37
21706;BME280;11014;53.076;18.208;2024-03-02T09:56:54;100894.09;;;15.65;62.05
21706;BME280;11014;53.076;18.208;2024-03-02T09:59:23;100904.50;;;15.78;61.68
21706;BME280;11014;53.076;18.208;2024-03-02T10:01:59;100901.38;;;15.96;61.91
21706;BME280;11014;53.076;18.208;2024-03-02T10:04:30;100904.44;;;16.05;61.17
21706;BME280;11014;53.076;18.208;2024-03-02T10:07:11;100904.00;;;16.18;60.70
21706;BME280;11014;53.076;18.208;2024-03-02T10:09:41;100898.06;;;16.21;60.32
21706;BME280;11014;53.076;18.208;2024-03-02T10:12:12;100903.56;;;16.31;60.07
21706;BME280;11014;53.076;18.208;2024-03-02T10:14:41;100896.78;;;16.33;59.98
21706;BME280;11014;53.076;18.208;2024-03-02T10:17:13;100893.88;;;16.45;60.02
21706;BME280;11014;53.076;18.208;2024-03-02T10:19:44;100895.88;;;16.59;59.75
21706;BME280;11014;53.076;18.208;2024-03-02T10:22:12;100896.75;;;16.70;59.67
21706;BME280;11014;53.076;18.208;2024-03-02T10:24:44;100891.63;;;16.79;59.03
21706;BME280;11014;53.076;18.208;2024-03-02T10:27:26;100879.47;;;16.91;58.86
21706;BME280;11014;53.076;18.208;2024-03-02T10:29:55;100889.56;;;17.06;58.49
21706;BME280;11014;53.076;18.208;2024-03-02T10:32:24;100894.47;;;17.09;57.84
21706;BME280;11014;53.076;18.208;2024-03-02T10:34:53;100885.22;;;17.05;57.86
21706;BME280;11014;53.076;18.208;2024-03-02T10:37:21;100876.00;;;17.01;57.90
21706;BME280;11014;53.076;18.208;2024-03-02T10:39:52;100872.75;;;16.99;57.82
21706;BME280;11014;53.076;18.208;2024-03-02T10:42:22;100881.19;;;17.07;57.85
21706;BME280;11014;53.076;18.208;2024-03-02T10:44:52;100881.44;;;17.16;57.43
21706;BME280;11014;53.076;18.208;2024-03-02T10:47:21;100877.13;;;17.15;57.29
21706;BME280;11014;53.076;18.208;2024-03-02T10:49:52;100873.31;;;17.16;57.33
21706;BME280;11014;53.076;18.208;2024-03-02T10:52:22;100878.78;;;17.26;57.43
21706;BME280;11014;53.076;18.208;2024-03-02T10:54:51;100875.00;;;17.37;57.72
21706;BME280;11014;53.076;18.208;2024-03-02T10:57:21;100869.34;;;17.54;57.68
21706;BME280;11014;53.076;18.208;2024-03-02T10:59:53;100876.16;;;17.66;57.16
21706;BME280;11014;53.076;18.208;2024-03-02T11:02:51;100871.81;;;17.86;56.70
21706;BME280;11014;53.076;18.208;2024-03-02T11:05:28;100866.09;;;17.82;56.69
21706;BME280;11014;53.076;18.208;2024-03-02T11:08:06;100863.13;;;17.89;56.40
21706;BME280;11014;53.076;18.208;2024-03-02T11:10:39;100863.09;;;17.94;56.45
21706;BME280;11014;53.076;18.208;2024-03-02T11:13:35;100854.69;;;18.05;55.84
21706;BME280;11014;53.076;18.208;2024-03-02T11:16:58;100859.03;;;17.91;55.91
21706;BME280;11014;53.076;18.208;2024-03-02T11:20:31;100866.91;;;17.93;55.44
21706;BME280;11014;53.076;18.208;2024-03-02T11:23:05;100859.31;;;17.95;55.26
21706;BME280;11014;53.076;18.208;2024-03-02T11:25:34;100861.47;;;17.93;55.03
21706;BME280;11014;53.076;18.208;2024-03-02T11:28:35;100853.81;;;18.15;55.25
21706;BME280;11014;53.076;18.208;2024-03-02T11:31:57;100855.19;;;18.17;55.52
21706;BME280;11014;53.076;18.208;2024-03-02T11:34:34;100858.72;;;18.18;55.39
21706;BME280;11014;53.076;18.208;2024-03-02T11:37:04;100867.13;;;18.26;54.96
21706;BME280;11014;53.076;18.208;2024-03-02T11:39:34;100863.56;;;18.36;54.80
21706;BME280;11014;53.076;18.208;2024-03-02T11:42:02;100861.41;;;18.48;54.14
21706;BME280;11014;53.076;18.208;2024-03-02T11:44:32;100856.50;;;18.50;53.85
21706;BME280;11014;53.076;18.208;2024-03-02T11:47:02;100847.78;;;18.53;54.16
21706;BME280;11014;53.076;18.208;2024-03-02T11:49:41;100846.16;;;18.57;53.65
21706;BME280;11014;53.076;18.208;2024-03-02T11:52:12;100852.91;;;18.65;53.99
21706;BME280;11014;53.076;18.208;2024-03-02T11:54:43;100848.50;;;18.79;53.29
21706;BME280;11014;53.076;18.208;2024-03-02T11:57:21;100846.00;;;18.87;52.62
21706;BME280;11014;53.076;18.208;2024-03-02T11:59:54;100856.75;;;19.18;52.49
21706;BME280;11014;53.076;18.208;2024-03-02T12:07:02;100860.66;;;21.26;47.93
21706;BME280;11014;53.076;18.208;2024-03-02T12:14:15;100847.38;;;22.63;45.33
21706;BME280;11014;53.076;18.208;2024-03-02T12:16:44;100842.00;;;22.58;44.35
21706;BME280;11014;53.076;18.208;2024-03-02T12:19:13;100843.63;;;22.31;44.51
21706;BME280;11014;53.076;18.208;2024-03-02T12:21:44;100841.94;;;22.03;45.00
21706;BME280;11014;53.076;18.208;2024-03-02T12:24:12;100842.22;;;21.88;45.18
21706;BME280;11014;53.076;18.208;2024-03-02T12:26:41;100842.88;;;21.80;45.41
21706;BME280;11014;53.076;18.208;2024-03-02T12:29:10;100841.34;;;21.74;45.54
21706;BME280;11014;53.076;18.208;2024-03-02T12:31:46;100838.72;;;22.01;44.72
21706;BME280;11014;53.076;18.208;2024-03-02T12:34:17;100832.78;;;22.40;43.91
21706;BME280;11014;53.076;18.208;2024-03-02T12:36:46;100836.22;;;22.46;43.75
21706;BME280;11014;53.076;18.208;2024-03-02T12:39:18;100837.25;;;22.77;43.09
21706;BME280;11014;53.076;18.208;2024-03-02T12:41:46;100846.03;;;22.33;43.18
21706;BME280;11014;53.076;18.208;2024-03-02T12:44:15;100844.44;;;22.18;43.38
21706;BME280;11014;53.076;18.208;2024-03-02T12:46:44;100834.28;;;22.32;43.18
21706;BME280;11014;53.076;18.208;2024-03-02T12:49:14;100832.69;;;22.59;42.85
21706;BME280;11014;53.076;18.208;2024-03-02T12:51:46;100828.03;;;22.73;41.89
21706;BME280;11014;53.076;18.208;2024-03-02T12:54:22;100829.34;;;22.62;42.43
21706;BME280;11014;53.076;18.208;2024-03-02T12:56:51;100839.56;;;22.42;42.30
21706;BME280;11014;53.076;18.208;2024-03-02T12:59:24;100840.56;;;22.19;42.52
21706;BME280;11014;53.076;18.208;2024-03-02T13:01:55;100838.31;;;22.21;42.95
21706;BME280;11014;53.076;18.208;2024-03-02T13:04:29;100835.19;;;22.14;42.93
21706;BME280;11014;53.076;18.208;2024-03-02T13:06:58;100839.91;;;21.95;43.10